createdAt,value
2019-06-27T00:01:31.538Z,15.60
2019-06-27T00:04:00.950Z,15.50
2019-06-27T00:06:28.866Z,15.40
2019-06-27T00:08:56.705Z,15.30
2019-06-27T00:11:24.545Z,15.30
2019-06-27T00:13:52.748Z,15.30
2019-06-27T00:16:20.485Z,15.30
2019-06-27T00:18:48.623Z,15.30
2019-06-27T00:21:16.701Z,15.30
2019-06-27T00:23:46.613Z,15.30
2019-06-27T00:26:14.534Z,15.20
2019-06-27T00:28:42.562Z,15.20
2019-06-27T00:31:10.450Z,15.00
2019-06-27T00:33:38.517Z,15.10
2019-06-27T00:36:06.612Z,15.10
2019-06-27T00:38:34.736Z,15.10
2019-06-27T00:41:02.327Z,15.10
2019-06-27T00:43:30.908Z,15.00
2019-06-27T00:45:59.226Z,15.00
2019-06-27T00:48:26.838Z,15.00
2019-06-27T00:50:54.708Z,15.10
2019-06-27T00:53:22.813Z,15.10
2019-06-27T00:55:50.767Z,15.00
2019-06-27T00:58:18.926Z,14.90
2019-06-27T01:00:47.128Z,14.90
2019-06-27T01:03:16.141Z,14.80
2019-06-27T01:05:44.131Z,14.80
2019-06-27T01:08:11.775Z,14.80
2019-06-27T01:10:39.587Z,14.80
2019-06-27T01:13:07.546Z,14.80
2019-06-27T01:15:35.763Z,14.70
2019-06-27T01:18:03.912Z,14.70
2019-06-27T01:20:32.536Z,14.70
2019-06-27T01:23:10.919Z,14.70
2019-06-27T01:25:43.422Z,14.70
2019-06-27T01:28:11.913Z,14.70
2019-06-27T01:30:40.230Z,14.70
2019-06-27T01:33:08.456Z,14.60
2019-06-27T01:35:36.154Z,14.70
2019-06-27T01:38:03.846Z,14.70
2019-06-27T01:40:32.180Z,14.60
2019-06-27T01:43:03.402Z,14.60
2019-06-27T01:45:45.637Z,14.60
2019-06-27T01:48:13.628Z,14.50
2019-06-27T01:50:41.439Z,14.60
2019-06-27T01:53:09.561Z,14.50
2019-06-27T01:55:37.368Z,14.50
2019-06-27T01:58:06.294Z,14.50
2019-06-27T02:00:35.144Z,14.50
2019-06-27T02:03:03.725Z,14.50
2019-06-27T02:05:31.652Z,14.50
2019-06-27T02:07:59.781Z,14.60
2019-06-27T02:10:27.953Z,14.50
2019-06-27T02:12:56.255Z,14.50
2019-06-27T02:15:24.477Z,14.50
2019-06-27T02:17:52.431Z,14.50
2019-06-27T02:20:20.717Z,14.50
2019-06-27T02:22:48.775Z,14.50
2019-06-27T02:25:17.234Z,14.50
2019-06-27T02:28:02.595Z,14.50
2019-06-27T02:30:23.148Z,14.50
2019-06-27T02:32:52.509Z,14.50
2019-06-27T02:35:20.859Z,14.40
2019-06-27T02:37:53.731Z,14.40
2019-06-27T02:40:21.835Z,14.40
2019-06-27T02:42:49.777Z,14.40
2019-06-27T02:45:17.903Z,14.40
2019-06-27T02:47:45.900Z,14.40
2019-06-27T02:50:13.687Z,14.30
2019-06-27T02:52:42.547Z,14.30
2019-06-27T02:55:10.607Z,14.30
2019-06-27T02:57:38.325Z,14.30
2019-06-27T03:00:06.722Z,14.30
2019-06-27T03:02:37.369Z,14.30
2019-06-27T03:05:06.354Z,14.30
2019-06-27T03:07:33.973Z,14.30
2019-06-27T03:10:01.771Z,14.30
2019-06-27T03:12:30.058Z,14.30
2019-06-27T03:15:01.189Z,14.30
2019-06-27T03:17:29.804Z,14.40
2019-06-27T03:19:57.959Z,14.30
2019-06-27T03:22:25.832Z,14.30
2019-06-27T03:24:54.632Z,14.30
2019-06-27T03:27:22.369Z,14.40
2019-06-27T03:29:50.504Z,14.40
2019-06-27T03:32:18.987Z,14.40
2019-06-27T03:34:46.648Z,14.40
2019-06-27T03:37:15.384Z,14.30
2019-06-27T03:39:46.668Z,14.30
2019-06-27T03:42:14.637Z,14.30
2019-06-27T03:44:42.813Z,14.30
2019-06-27T03:47:11.139Z,14.30
2019-06-27T03:49:39.051Z,14.30
2019-06-27T03:52:07.754Z,14.30
2019-06-27T03:54:36.297Z,14.30
2019-06-27T03:57:04.595Z,14.40
2019-06-27T03:59:32.572Z,14.40
2019-06-27T04:02:00.637Z,14.40
2019-06-27T04:04:28.606Z,14.40
2019-06-27T04:06:56.409Z,14.40
2019-06-27T04:09:24.517Z,14.50
2019-06-27T04:11:52.875Z,14.50
2019-06-27T04:14:21.074Z,14.50
2019-06-27T04:16:49.535Z,14.60
2019-06-27T04:19:17.703Z,14.60
2019-06-27T04:21:45.690Z,14.60
2019-06-27T04:24:15.508Z,14.60
2019-06-27T04:26:43.645Z,14.60
2019-06-27T04:29:31.439Z,14.60
2019-06-27T04:35:19.606Z,14.70
2019-06-27T04:37:49.227Z,14.70
2019-06-27T04:40:22.727Z,14.70
2019-06-27T04:42:53.121Z,14.70
2019-06-27T04:45:26.475Z,14.80
2019-06-27T04:47:55.455Z,14.80
2019-06-27T04:50:26.397Z,14.90
2019-06-27T04:52:56.452Z,15.00
2019-06-27T04:55:26.921Z,15.00
2019-06-27T04:58:02.654Z,15.00
2019-06-27T05:01:30.792Z,15.00
2019-06-27T05:05:15.770Z,15.00
2019-06-27T05:07:41.297Z,15.20
2019-06-27T05:10:11.203Z,15.20
2019-06-27T05:15:57.446Z,15.30
2019-06-27T05:18:27.910Z,15.30
2019-06-27T05:21:31.730Z,15.30
2019-06-27T05:24:19.330Z,15.40
2019-06-27T05:34:29.514Z,15.60
2019-06-27T05:37:01.263Z,15.60
2019-06-27T05:46:05.369Z,15.70
2019-06-27T05:48:53.348Z,15.80
2019-06-27T05:52:19.488Z,15.80
2019-06-27T05:54:49.197Z,15.80
2019-06-27T05:57:20.054Z,15.90
2019-06-27T05:59:49.419Z,16.00
2019-06-27T06:02:36.267Z,16.00
2019-06-27T06:05:11.287Z,16.10
2019-06-27T06:07:49.276Z,16.10
2019-06-27T06:10:26.107Z,16.10
2019-06-27T06:12:57.691Z,16.20
2019-06-27T06:15:39.485Z,16.30
2019-06-27T06:18:33.575Z,16.30
2019-06-27T06:21:12.797Z,16.40
2019-06-27T06:23:56.814Z,16.40
2019-06-27T06:26:29.195Z,16.40
2019-06-27T06:28:58.708Z,16.40
2019-06-27T06:31:49.410Z,16.30
2019-06-27T06:34:37.879Z,16.20
2019-06-27T06:37:18.018Z,16.20
2019-06-27T06:40:21.219Z,16.20
2019-06-27T06:42:30.044Z,16.20
2019-06-27T06:45:00.662Z,16.30
2019-06-27T06:47:37.032Z,16.40
2019-06-27T06:50:06.065Z,16.40
2019-06-27T06:53:13.692Z,16.40
2019-06-27T06:58:18.515Z,16.50
2019-06-27T07:07:15.166Z,16.60
2019-06-27T07:09:24.211Z,16.60
2019-06-27T07:11:56.380Z,16.60
2019-06-27T07:14:33.147Z,16.60
2019-06-27T07:17:08.004Z,16.60
2019-06-27T07:20:01.212Z,16.70
2019-06-27T07:22:58.695Z,16.70
2019-06-27T07:25:36.348Z,16.80
2019-06-27T07:28:19.132Z,16.80
2019-06-27T07:30:51.018Z,16.80
2019-06-27T07:33:20.630Z,16.80
2019-06-27T07:35:50.779Z,16.90
2019-06-27T07:38:34.370Z,16.80
2019-06-27T07:41:05.050Z,16.80
2019-06-27T07:43:47.213Z,16.70
2019-06-27T07:46:37.444Z,16.80
2019-06-27T07:49:14.609Z,16.80
2019-06-27T07:51:54.042Z,16.80
2019-06-27T07:54:33.893Z,16.90
2019-06-27T07:57:28.741Z,16.90
2019-06-27T07:59:58.918Z,16.80
2019-06-27T08:02:43.073Z,16.90
2019-06-27T08:05:17.519Z,17.00
2019-06-27T08:07:54.152Z,17.00
2019-06-27T08:10:49.004Z,17.00
2019-06-27T08:13:14.788Z,17.00
2019-06-27T08:15:52.166Z,17.00
2019-06-27T08:18:27.312Z,17.10
2019-06-27T08:20:58.337Z,17.00
2019-06-27T08:23:55.539Z,17.00
2019-06-27T08:27:03.508Z,17.00
2019-06-27T08:29:16.851Z,17.10
2019-06-27T08:31:51.401Z,17.10
2019-06-27T08:34:18.231Z,17.10
2019-06-27T08:36:48.420Z,17.10
2019-06-27T08:39:53.514Z,17.20
2019-06-27T08:42:10.671Z,17.30
2019-06-27T08:44:40.447Z,17.20
2019-06-27T08:47:17.680Z,17.30
2019-06-27T08:49:53.516Z,17.30
2019-06-27T08:52:22.389Z,17.30
2019-06-27T08:54:52.218Z,17.30
2019-06-27T08:57:22.744Z,17.30
2019-06-27T08:59:53.301Z,17.30
2019-06-27T09:02:38.549Z,17.50
2019-06-27T09:05:08.278Z,17.50
2019-06-27T09:07:42.987Z,17.60
2019-06-27T09:10:16.582Z,17.60
2019-06-27T09:12:54.149Z,17.80
2019-06-27T09:15:28.675Z,17.80
2019-06-27T09:17:59.033Z,17.80
2019-06-27T09:20:31.382Z,18.00
2019-06-27T09:23:02.503Z,18.30
2019-06-27T09:25:37.364Z,18.80
2019-06-27T09:28:10.300Z,19.10
2019-06-27T09:30:41.113Z,19.00
2019-06-27T09:33:11.234Z,18.90
2019-06-27T09:35:40.577Z,18.80
2019-06-27T09:38:10.775Z,18.70
2019-06-27T09:40:42.655Z,18.60
2019-06-27T09:43:11.623Z,18.50
2019-06-27T09:45:42.059Z,18.50
2019-06-27T09:48:12.785Z,18.30
2019-06-27T09:50:57.069Z,18.40
2019-06-27T09:53:25.831Z,18.50
2019-06-27T09:55:57.870Z,18.50
2019-06-27T09:58:26.770Z,18.70
2019-06-27T10:00:55.744Z,18.60
2019-06-27T10:03:24.685Z,18.50
2019-06-27T10:05:55.835Z,18.20
2019-06-27T10:08:26.460Z,18.20
2019-06-27T10:10:56.004Z,18.10
2019-06-27T10:13:26.196Z,18.30
2019-06-27T10:16:00.267Z,18.30
2019-06-27T10:18:32.811Z,18.40
2019-06-27T10:21:04.067Z,18.50
2019-06-27T10:23:35.727Z,18.70
2019-06-27T10:26:04.766Z,18.70
2019-06-27T10:28:40.193Z,18.80
2019-06-27T10:31:18.836Z,18.80
2019-06-27T10:33:48.027Z,18.70
2019-06-27T10:36:18.676Z,18.80
2019-06-27T10:38:54.335Z,18.80
2019-06-27T10:41:22.845Z,18.80
2019-06-27T10:44:00.652Z,18.90
2019-06-27T10:46:39.786Z,18.60
2019-06-27T10:52:04.099Z,18.40
2019-06-27T10:54:32.792Z,18.60
2019-06-27T10:57:01.263Z,18.90
2019-06-27T10:59:30.759Z,19.10
2019-06-27T11:01:59.311Z,19.10
2019-06-27T11:04:30.986Z,19.10
2019-06-27T11:06:59.691Z,18.90
2019-06-27T11:09:29.125Z,18.80
2019-06-27T11:12:01.446Z,18.70
2019-06-27T11:14:30.802Z,18.70
2019-06-27T11:17:03.359Z,18.90
2019-06-27T11:19:31.993Z,19.10
2019-06-27T11:22:00.895Z,19.20
2019-06-27T11:24:32.666Z,19.20
2019-06-27T11:27:05.687Z,19.10
2019-06-27T11:29:58.336Z,19.10
2019-06-27T11:32:49.839Z,19.10
2019-06-27T11:38:24.882Z,19.70
2019-06-27T11:40:53.360Z,20.10
2019-06-27T11:43:22.648Z,20.20
2019-06-27T11:45:58.257Z,20.00
2019-06-27T11:48:27.311Z,19.80
2019-06-27T11:51:03.265Z,19.50
2019-06-27T11:53:33.910Z,19.30
2019-06-27T11:56:28.635Z,19.00
2019-06-27T11:58:47.941Z,19.00
2019-06-27T12:04:30.557Z,19.30
2019-06-27T12:06:59.907Z,19.40
2019-06-27T12:09:36.382Z,19.50
2019-06-27T12:12:04.966Z,19.50
2019-06-27T12:14:33.813Z,19.50
2019-06-27T12:17:02.704Z,19.30
2019-06-27T12:19:31.287Z,19.20
2019-06-27T12:22:11.857Z,19.00
2019-06-27T12:24:44.019Z,18.70
2019-06-27T12:27:13.166Z,18.60
2019-06-27T12:29:56.221Z,18.70
2019-06-27T12:32:25.096Z,18.70
2019-06-27T12:34:56.197Z,18.90
2019-06-27T12:37:32.934Z,19.00
2019-06-27T12:42:55.554Z,19.80
2019-06-27T12:45:39.335Z,20.70
2019-06-27T12:48:11.336Z,21.10
2019-06-27T12:50:40.102Z,21.10
2019-06-27T12:53:08.871Z,20.80
2019-06-27T12:55:38.017Z,20.50
2019-06-27T12:58:06.880Z,20.10
2019-06-27T13:00:39.102Z,19.80
2019-06-27T13:03:10.203Z,19.80
2019-06-27T13:05:39.513Z,19.70
2019-06-27T13:08:09.530Z,19.70
2019-06-27T13:10:38.690Z,19.70
2019-06-27T13:14:05.605Z,19.60
2019-06-27T13:16:38.018Z,19.50
2019-06-27T13:19:08.447Z,19.50
2019-06-27T13:21:38.082Z,19.60
2019-06-27T13:24:09.741Z,20.00
2019-06-27T13:26:49.929Z,20.10
2019-06-27T13:29:27.294Z,20.00
2019-06-27T13:31:56.361Z,19.90
2019-06-27T13:34:39.475Z,20.10
2019-06-27T13:36:55.218Z,19.80
2019-06-27T13:39:23.989Z,19.60
2019-06-27T13:44:52.721Z,19.20
2019-06-27T13:47:50.510Z,19.00
2019-06-27T13:50:16.694Z,18.90
2019-06-27T13:53:03.392Z,19.20
2019-06-27T13:55:35.447Z,19.30
2019-06-27T13:58:14.275Z,19.20
2019-06-27T14:01:31.891Z,19.10
2019-06-27T14:04:01.527Z,19.00
2019-06-27T14:06:41.565Z,19.00
2019-06-27T14:09:22.439Z,19.00
2019-06-27T14:11:47.071Z,19.10
2019-06-27T14:14:16.844Z,19.20
2019-06-27T14:16:47.738Z,19.10
2019-06-27T14:19:16.644Z,19.00
2019-06-27T14:22:32.686Z,18.90
2019-06-27T14:24:54.857Z,18.90
2019-06-27T14:27:25.076Z,19.00
2019-06-27T14:31:57.913Z,18.90
2019-06-27T14:33:22.387Z,18.90
2019-06-27T14:35:52.355Z,18.90
2019-06-27T14:38:51.355Z,18.90
2019-06-27T14:41:19.957Z,18.80
2019-06-27T14:43:50.639Z,18.70
2019-06-27T14:46:33.115Z,18.60
2019-06-27T14:49:45.609Z,18.50
2019-06-27T14:52:22.275Z,18.60
2019-06-27T14:55:47.723Z,18.60
2019-06-27T14:59:20.530Z,18.40
2019-06-27T15:12:35.750Z,18.20
2019-06-27T15:15:32.306Z,18.30
2019-06-27T15:18:33.752Z,18.10
2019-06-27T15:28:40.663Z,18.40
2019-06-27T15:49:30.211Z,18.90
2019-06-27T15:52:45.033Z,19.00
2019-06-27T15:59:40.987Z,19.10
2019-06-27T16:02:57.232Z,18.90
2019-06-27T16:05:47.055Z,18.90
2019-06-27T16:11:55.503Z,18.80
2019-06-27T16:14:50.830Z,18.60
2019-06-27T16:17:33.242Z,18.60
2019-06-27T16:21:02.060Z,18.60
2019-06-27T16:24:11.388Z,18.60
2019-06-27T16:26:46.631Z,18.70
2019-06-27T16:29:21.965Z,18.80
2019-06-27T16:34:59.158Z,18.50
2019-06-27T16:37:29.307Z,18.30
2019-06-27T16:40:04.603Z,18.10
2019-06-27T16:43:03.721Z,18.00
2019-06-27T16:48:54.494Z,18.10
2019-06-27T16:52:14.545Z,17.90
2019-06-27T16:55:09.768Z,17.90
2019-06-27T16:57:38.066Z,17.80
2019-06-27T17:03:39.080Z,17.90
2019-06-27T17:06:40.815Z,17.90
2019-06-27T17:09:48.224Z,17.80
2019-06-27T17:16:31.910Z,17.70
2019-06-27T17:26:27.800Z,17.40
2019-06-27T17:29:36.476Z,17.30
2019-06-27T17:32:23.109Z,17.20
2019-06-27T17:35:47.557Z,17.20
2019-06-27T17:38:14.535Z,17.20
2019-06-27T17:40:52.527Z,17.20
2019-06-27T17:43:26.078Z,17.10
2019-06-27T17:45:55.386Z,17.10
2019-06-27T17:48:52.671Z,17.10
2019-06-27T17:51:00.479Z,17.10
2019-06-27T17:53:34.731Z,17.10
2019-06-27T17:56:05.413Z,17.10
2019-06-27T17:58:41.635Z,17.10
2019-06-27T18:01:11.203Z,17.00
2019-06-27T18:03:40.900Z,17.00
2019-06-27T18:06:26.573Z,16.90
2019-06-27T18:09:11.872Z,16.90
2019-06-27T18:11:49.655Z,16.90
2019-06-27T18:14:34.420Z,16.90
2019-06-27T18:17:43.337Z,16.80
2019-06-27T18:20:12.811Z,16.70
2019-06-27T18:22:43.761Z,16.60
2019-06-27T18:25:20.112Z,16.50
2019-06-27T18:27:55.766Z,16.40
2019-06-27T18:30:23.870Z,16.40
2019-06-27T18:33:11.302Z,16.40
2019-06-27T18:35:41.289Z,16.40
2019-06-27T18:38:17.502Z,16.40
2019-06-27T18:41:21.027Z,16.40
2019-06-27T18:43:54.571Z,16.40
2019-06-27T18:46:24.899Z,16.30
2019-06-27T18:48:55.632Z,16.20
2019-06-27T18:51:32.052Z,16.30
2019-06-27T18:54:08.058Z,16.30
2019-06-27T18:56:38.805Z,16.30
2019-06-27T18:59:06.671Z,16.20
2019-06-27T19:02:01.428Z,16.10
2019-06-27T19:08:32.887Z,16.20
2019-06-27T19:11:15.364Z,16.20
2019-06-27T19:14:06.123Z,16.10
2019-06-27T19:16:39.871Z,16.10
2019-06-27T19:19:09.878Z,16.10
2019-06-27T19:22:30.153Z,16.10
2019-06-27T19:25:13.760Z,16.00
2019-06-27T19:27:49.777Z,16.00
2019-06-27T19:30:18.327Z,16.00
2019-06-27T19:33:08.376Z,16.00
2019-06-27T19:35:38.246Z,16.00
2019-06-27T19:38:09.260Z,15.90
2019-06-27T19:41:08.787Z,15.90
2019-06-27T19:43:45.653Z,15.90
2019-06-27T19:46:25.764Z,15.80
2019-06-27T19:51:44.452Z,15.80
2019-06-27T19:54:36.614Z,15.70
2019-06-27T19:57:11.433Z,15.70
2019-06-27T19:59:42.347Z,15.70
2019-06-27T20:02:22.448Z,15.70
2019-06-27T20:05:06.619Z,15.70
2019-06-27T20:07:47.041Z,15.70
2019-06-27T20:10:45.266Z,15.70
2019-06-27T20:13:49.989Z,15.60
2019-06-27T20:16:25.174Z,15.50
2019-06-27T20:19:00.921Z,15.50
2019-06-27T20:21:30.672Z,15.50
2019-06-27T20:24:08.816Z,15.50
2019-06-27T20:27:02.409Z,15.50
2019-06-27T20:41:15.763Z,15.50
2019-06-27T20:45:05.964Z,15.40
2019-06-27T20:48:02.173Z,15.40
2019-06-27T20:54:24.116Z,15.30
2019-06-27T20:57:04.180Z,15.30
2019-06-27T20:59:32.754Z,15.20
2019-06-27T21:04:52.427Z,15.20
2019-06-27T21:07:35.108Z,15.20
2019-06-27T21:09:53.120Z,15.20
2019-06-27T21:12:28.853Z,15.20
2019-06-27T21:14:54.447Z,15.20
2019-06-27T21:17:22.693Z,15.20
2019-06-27T21:22:50.146Z,15.20
2019-06-27T21:25:20.314Z,15.20
2019-06-27T21:27:51.183Z,15.20
2019-06-27T21:30:20.475Z,15.20
2019-06-27T21:32:48.743Z,15.10
2019-06-27T21:38:06.497Z,15.10
2019-06-27T21:40:47.616Z,15.10
2019-06-27T21:43:15.552Z,15.10
2019-06-27T21:45:44.054Z,15.10
2019-06-27T21:48:12.303Z,15.10
2019-06-27T21:50:40.155Z,15.00
2019-06-27T21:53:11.035Z,15.10
2019-06-27T21:55:44.531Z,15.00
2019-06-27T21:58:13.167Z,15.00
2019-06-27T22:00:45.520Z,15.00
2019-06-27T22:03:13.778Z,15.00
2019-06-27T22:05:41.894Z,15.00
2019-06-27T22:08:09.754Z,15.10
2019-06-27T22:10:37.744Z,15.00
2019-06-27T22:13:06.025Z,15.10
2019-06-27T22:15:34.516Z,15.10
2019-06-27T22:18:06.218Z,15.10
2019-06-27T22:20:34.198Z,15.10
2019-06-27T22:23:02.406Z,15.00
2019-06-27T22:25:39.812Z,15.00
2019-06-27T22:28:00.328Z,15.00
2019-06-27T22:30:30.430Z,15.00
2019-06-27T22:33:08.212Z,15.00
2019-06-27T22:35:35.955Z,15.00
2019-06-27T22:38:21.810Z,14.90
2019-06-27T22:41:08.752Z,15.00
2019-06-27T22:43:55.108Z,15.00
2019-06-27T22:46:44.012Z,14.90
2019-06-27T22:49:12.853Z,14.90
2019-06-27T22:52:15.542Z,14.90
2019-06-27T22:54:45.420Z,14.90
2019-06-27T22:57:21.484Z,14.90
2019-06-27T22:59:49.487Z,14.80
2019-06-27T23:02:24.177Z,14.80
2019-06-27T23:04:52.583Z,14.80
2019-06-27T23:07:36.050Z,14.80
2019-06-27T23:10:06.899Z,14.80
2019-06-27T23:12:40.865Z,14.80
2019-06-27T23:15:10.000Z,14.80
2019-06-27T23:17:38.055Z,14.80
2019-06-27T23:20:09.487Z,14.80
2019-06-27T23:22:37.491Z,14.80
2019-06-27T23:25:06.887Z,14.80
2019-06-27T23:27:35.417Z,14.80
2019-06-27T23:30:03.998Z,14.80
2019-06-27T23:32:33.929Z,14.80
2019-06-27T23:35:01.472Z,14.80
2019-06-27T23:37:29.475Z,14.80
2019-06-27T23:40:12.765Z,14.80
2019-06-27T23:42:28.045Z,14.80
2019-06-27T23:44:56.016Z,14.80
2019-06-27T23:47:24.242Z,14.80
2019-06-27T23:49:51.983Z,14.80
2019-06-27T23:52:20.219Z,14.80
2019-06-27T23:54:48.002Z,14.80
2019-06-27T23:57:16.185Z,14.80
2019-06-27T23:59:43.992Z,14.80
